Time;durP1;ratioP1;P1;durP2;ratioP2;P2;SDS_P1;SDS_P2;PMS_P1;PMS_P2;Temp;Humidity;BMP_temperature;BMP_pressure;BME280_temperature;BME280_humidity;BME280_pressure;Samples;Min_cycle;Max_cycle;Signal;HPM_P1;HPM_P2
2022/02/25 00:01:58;;;;;;;;;3.75;1.25;;;;;6.74;52.96;101541.59;5096924;27;45390;-61
2022/02/25 00:04:24;;;;;;;;;2.00;2.00;;;;;6.72;52.73;101551.28;5096771;27;45424;-61
2022/02/25 00:06:49;;;;;;;;;4.00;2.00;;;;;6.71;52.50;101552.22;5096161;27;62002;-61
2022/02/25 00:09:14;;;;;;;;;4.50;1.25;;;;;6.69;52.69;101562.75;5096731;27;46860;-61
2022/02/25 00:11:40;;;;;;;;;2.75;2.25;;;;;6.68;52.91;101555.81;5098719;27;71756;-61
2022/02/25 00:14:05;;;;;;;;;3.00;2.00;;;;;6.67;52.91;101559.38;5100295;27;45433;-61
2022/02/25 00:16:30;;;;;;;;;2.00;2.00;;;;;6.66;52.75;101555.06;5099647;27;66673;-61
2022/02/25 00:18:56;;;;;;;;;3.00;1.50;;;;;6.63;52.71;101558.72;5099592;27;64891;-61
2022/02/25 00:21:21;;;;;;;;;1.25;1.00;;;;;6.62;52.72;101566.66;5099259;27;46097;-61
2022/02/25 00:23:47;;;;;;;;;4.00;1.75;;;;;6.63;52.94;101569.16;5099795;27;54852;-61
2022/02/25 00:26:12;;;;;;;;;5.00;1.00;;;;;6.62;52.96;101570.09;5100294;27;45295;-61
2022/02/25 00:28:37;;;;;;;;;3.00;2.00;;;;;6.61;52.83;101562.34;5099541;27;60285;-61
2022/02/25 00:31:03;;;;;;;;;3.75;1.25;;;;;6.60;52.81;101566.72;5099177;27;69691;-61
2022/02/25 00:33:28;;;;;;;;;3.00;2.00;;;;;6.60;53.02;101579.78;5099196;27;71312;-61
2022/02/25 00:35:53;;;;;;;;;4.75;2.00;;;;;6.58;53.11;101581.63;5099679;27;52511;-62
2022/02/25 00:38:19;;;;;;;;;1.00;1.00;;;;;6.57;53.22;101577.31;5100177;27;45224;-61
2022/02/25 00:40:45;;;;;;;;;2.00;2.00;;;;;6.56;53.23;101575.63;5099861;27;46234;-61
2022/02/25 00:43:10;;;;;;;;;2.50;1.00;;;;;6.56;53.30;101580.03;5099867;27;45191;-61
2022/02/25 00:45:35;;;;;;;;;1.00;1.00;;;;;6.56;53.57;101586.09;5099089;27;66474;-60
2022/02/25 00:48:01;;;;;;;;;1.00;1.00;;;;;6.56;53.69;101588.69;5100062;27;45581;-61
2022/02/25 00:50:26;;;;;;;;;2.00;1.00;;;;;6.55;53.72;101589.63;5099823;27;45316;-61
2022/02/25 00:52:52;;;;;;;;;0.75;0.75;;;;;6.55;53.82;101594.00;5099745;27;45333;-59
2022/02/25 00:55:17;;;;;;;;;0.75;0.75;;;;;6.55;53.96;101597.44;5098839;27;65040;-60
2022/02/25 00:57:46;;;;;;;;;2.00;1.00;;;;;6.52;53.90;101595.88;5099073;27;60382;-59
2022/02/25 01:00:14;;;;;;;;;1.75;1.50;;;;;6.53;54.12;101594.09;5081666;27;45480;-59
2022/02/25 01:02:39;;;;;;;;;0.25;0.25;;;;;6.52;54.11;101602.84;5099783;27;45476;-61
2022/02/25 01:05:05;;;;;;;;;2.00;1.00;;;;;6.51;54.29;101602.00;5099190;27;55098;-61
2022/02/25 01:07:30;;;;;;;;;1.25;0.75;;;;;6.51;54.14;101599.41;5099525;27;45486;-58
2022/02/25 01:09:56;;;;;;;;;3.25;1.25;;;;;6.48;54.22;101596.97;5098714;27;67297;-58
2022/02/25 01:12:21;;;;;;;;;2.75;2.00;;;;;6.48;54.28;101601.31;5097662;27;64816;-59
2022/02/25 01:14:46;;;;;;;;;5.00;2.00;;;;;6.48;54.22;101606.53;5098377;27;67628;-61
2022/02/25 01:17:12;;;;;;;;;3.00;1.00;;;;;6.46;54.43;101608.38;5099508;27;45604;-61
2022/02/25 01:19:37;;;;;;;;;2.00;2.00;;;;;6.43;54.55;101616.38;5098508;27;66911;-61
2022/02/25 01:22:02;;;;;;;;;4.75;1.25;;;;;6.42;54.64;101609.47;5096213;27;64758;-61
2022/02/25 01:24:28;;;;;;;;;0.75;0.75;;;;;6.41;54.33;101615.63;5099479;27;45250;-61
2022/02/25 01:26:53;;;;;;;;;2.00;1.00;;;;;6.39;54.45;101619.16;5098684;27;61095;-61
2022/02/25 01:29:19;;;;;;;;;2.00;1.00;;;;;6.38;54.53;101625.31;5099114;27;48553;-62
2022/02/25 01:31:45;;;;;;;;;3.75;2.00;;;;;6.36;54.46;101627.16;5098197;27;65934;-61
2022/02/25 01:34:11;;;;;;;;;2.00;2.00;;;;;6.36;54.77;101629.75;5099116;27;45330;-61
2022/02/25 01:36:36;;;;;;;;;1.00;1.00;;;;;6.34;54.63;101634.25;5099170;27;45474;-61
2022/02/25 01:39:02;;;;;;;;;1.00;1.00;;;;;6.33;54.62;101629.97;5097992;27;73189;-61
2022/02/25 01:41:30;;;;;;;;;7.00;0.75;;;;;6.32;54.66;101638.72;5099025;27;45318;-61
2022/02/25 01:44:13;;;;;;;;;2.25;1.00;;;;;6.26;55.04;101641.63;5080941;27;45240;-61
2022/02/25 01:46:38;;;;;;;;;3.50;2.00;;;;;6.25;55.20;101637.34;5099075;27;45283;-61
2022/02/25 01:49:04;;;;;;;;;2.00;1.00;;;;;6.23;55.25;101639.19;5098660;27;46247;-60
2022/02/25 01:51:29;;;;;;;;;2.00;2.00;;;;;6.24;55.09;101641.69;5098101;27;68146;-61
2022/02/25 01:53:54;;;;;;;;;1.00;1.00;;;;;6.24;55.34;101630.44;5098924;27;45456;-61
2022/02/25 01:56:20;;;;;;;;;1.25;1.00;;;;;6.19;55.50;101627.22;5097873;27;63484;-61
2022/02/25 01:58:45;;;;;;;;;2.00;2.00;;;;;6.18;55.45;101631.59;5098079;27;45390;-61
2022/02/25 02:01:12;;;;;;;;;4.00;1.00;;;;;6.16;55.29;101633.44;5098643;27;45455;-62
2022/02/25 02:03:37;;;;;;;;;7.50;1.00;;;;;6.15;55.34;101631.75;5098701;27;45364;-61
2022/02/25 02:06:06;;;;;;;;;11.00;1.00;;;;;6.12;55.60;101636.28;5097646;27;45281;-61
2022/02/25 02:08:31;;;;;;;;;1.50;1.00;;;;;6.10;55.67;101638.97;5079536;27;45382;-61
2022/02/25 02:10:56;;;;;;;;;4.25;2.00;;;;;6.07;55.80;101634.75;5097453;27;73243;-61
2022/02/25 02:13:22;;;;;;;;;3.50;1.25;;;;;6.05;55.96;101638.38;5097962;27;59324;-60
2022/02/25 02:15:47;;;;;;;;;2.75;1.75;;;;;6.03;55.84;101648.06;5098315;27;48235;-61
2022/02/25 02:18:12;;;;;;;;;2.75;1.00;;;;;6.03;56.01;101635.84;5097486;27;66884;-61
2022/02/25 02:20:38;;;;;;;;;3.00;1.00;;;;;6.00;55.73;101633.38;5098383;27;45325;-61
2022/02/25 02:23:03;;;;;;;;;2.50;1.00;;;;;5.99;56.08;101631.66;5098510;27;45419;-61
2022/02/25 02:25:29;;;;;;;;;4.50;2.00;;;;;5.97;56.18;101628.28;5097801;27;56848;-61
2022/02/25 02:30:38;;;;;;;;;2.25;1.00;;;;;5.95;56.30;101635.34;5098035;27;45306;-61
2022/02/25 02:33:03;;;;;;;;;3.25;1.75;;;;;5.96;56.03;101631.00;5096388;27;60242;-61
2022/02/25 02:35:29;;;;;;;;;5.00;2.00;;;;;5.96;56.22;101631.00;5098031;27;45223;-59
2022/02/25 02:37:54;;;;;;;;;1.00;1.00;;;;;5.95;56.17;101630.13;5096809;27;45361;-61
2022/02/25 02:40:20;;;;;;;;;2.25;2.25;;;;;5.94;56.09;101628.44;5097948;27;45354;-61
2022/02/25 02:42:45;;;;;;;;;2.25;1.00;;;;;5.94;55.96;101636.28;5098167;27;45231;-61
2022/02/25 02:45:11;;;;;;;;;2.75;1.00;;;;;5.92;56.13;101632.91;5098176;27;45277;-61
2022/02/25 02:47:37;;;;;;;;;0.75;0.75;;;;;5.90;56.26;101640.81;5097994;27;45967;-59
2022/02/25 02:50:03;;;;;;;;;1.00;1.00;;;;;5.89;56.35;101635.66;5097888;27;45244;-59
2022/02/25 02:52:28;;;;;;;;;1.00;1.00;;;;;5.90;56.17;101642.56;5079645;27;45459;-59
2022/02/25 02:54:54;;;;;;;;;2.00;0.00;;;;;5.89;56.23;101635.66;5097726;27;45520;-61
2022/02/25 02:57:20;;;;;;;;;2.00;1.00;;;;;5.87;56.10;101633.16;5096965;27;45352;-59
2022/02/25 02:59:45;;;;;;;;;1.00;1.00;;;;;5.85;56.04;101627.16;5062770;27;45809;-59
2022/02/25 03:02:11;;;;;;;;;5.00;2.00;;;;;5.86;56.50;101631.47;5096820;27;69063;-58
2022/02/25 03:04:36;;;;;;;;;4.00;1.00;;;;;5.85;56.55;101628.91;5097726;27;45548;-61
2022/02/25 03:07:02;;;;;;;;;4.00;1.00;;;;;5.83;56.54;101628.19;5096470;27;75554;-60
2022/02/25 03:09:27;;;;;;;;;2.00;1.00;;;;;5.82;56.36;101629.09;5097558;27;45494;-59
2022/02/25 03:11:54;;;;;;;;;0.50;0.50;;;;;5.82;56.58;101634.31;5096919;27;62914;-59
2022/02/25 03:14:20;;;;;;;;;2.00;0.75;;;;;5.81;56.60;101638.69;5097650;27;45215;-60
2022/02/25 03:16:45;;;;;;;;;1.00;1.00;;;;;5.80;56.75;101637.00;5097279;27;48784;-59
2022/02/25 03:19:10;;;;;;;;;3.00;0.00;;;;;5.78;56.85;101639.69;5096514;27;69399;-62
2022/02/25 03:21:36;;;;;;;;;2.25;1.00;;;;;5.77;56.77;101645.81;5096772;27;60372;-59
2022/02/25 03:24:01;;;;;;;;;1.00;1.00;;;;;5.75;56.90;101650.28;5096469;27;68658;-59
2022/02/25 03:26:26;;;;;;;;;1.00;0.25;;;;;5.75;56.94;101654.63;5096244;27;75030;-61
2022/02/25 03:28:52;;;;;;;;;2.50;1.00;;;;;5.73;57.13;101651.25;5096428;27;69999;-61
2022/02/25 03:31:18;;;;;;;;;2.00;1.00;;;;;5.70;57.19;101651.41;5096370;27;59362;-60
2022/02/25 03:33:43;;;;;;;;;1.00;0.50;;;;;5.62;57.41;101651.78;5097483;27;45431;-59
2022/02/25 03:36:08;;;;;;;;;1.25;1.00;;;;;5.58;57.48;101653.69;5096414;27;61762;-59
2022/02/25 03:38:34;;;;;;;;;1.00;1.00;;;;;5.54;57.67;101652.19;5097119;27;45369;-59
2022/02/25 03:40:59;;;;;;;;;0.50;0.00;;;;;5.48;57.90;101650.72;5096254;27;69365;-60
2022/02/25 03:43:24;;;;;;;;;1.00;1.00;;;;;5.46;57.81;101652.53;5097312;27;45470;-58
2022/02/25 03:45:50;;;;;;;;;3.00;1.00;;;;;5.43;57.69;101655.31;5096019;27;45335;-59
2022/02/25 03:48:16;;;;;;;;;1.75;0.25;;;;;5.39;57.78;101653.75;5096361;27;64415;-61
2022/02/25 03:50:42;;;;;;;;;1.00;1.00;;;;;5.37;57.96;101654.78;5097161;27;45517;-59
2022/02/25 03:53:07;;;;;;;;;0.75;0.75;;;;;5.32;57.97;101660.19;5096121;27;68100;-60
2022/02/25 03:55:32;;;;;;;;;1.00;1.00;;;;;5.28;58.23;101653.47;5096883;27;45398;-59
2022/02/25 03:57:58;;;;;;;;;3.75;0.00;;;;;5.21;58.41;101650.28;5095859;27;45492;-60
2022/02/25 04:00:23;;;;;;;;;1.00;1.00;;;;;5.18;58.61;101653.91;5096074;27;63966;-59
2022/02/25 04:02:49;;;;;;;;;0.00;0.00;;;;;5.19;58.93;101663.41;5096641;27;54266;-59
2022/02/25 04:05:14;;;;;;;;;2.00;0.25;;;;;5.17;59.04;101670.44;5096676;27;45346;-59
2022/02/25 04:07:41;;;;;;;;;2.75;1.00;;;;;5.16;59.17;101673.97;5096767;27;45170;-60
2022/02/25 04:10:07;;;;;;;;;3.00;0.75;;;;;5.16;59.35;101675.72;5096898;27;45335;-61
2022/02/25 04:12:32;;;;;;;;;1.25;0.00;;;;;5.16;59.05;101679.19;5096792;27;45519;-59
2022/02/25 04:14:58;;;;;;;;;1.75;0.00;;;;;5.14;59.31;101674.94;5096102;27;56719;-58
2022/02/25 04:17:23;;;;;;;;;1.00;0.75;;;;;5.13;58.95;101679.31;5095751;27;66540;-58
2022/02/25 04:19:48;;;;;;;;;2.00;0.25;;;;;5.12;59.25;101682.84;5095656;27;64725;-60
2022/02/25 04:22:14;;;;;;;;;3.50;1.50;;;;;5.11;59.34;101681.16;5096723;27;45426;-61
2022/02/25 04:24:39;;;;;;;;;0.00;0.00;;;;;5.08;59.30;101680.44;5096329;27;45350;-61
2022/02/25 04:27:04;;;;;;;;;3.00;0.50;;;;;5.09;59.61;101677.78;5095755;27;63657;-60
2022/02/25 04:29:30;;;;;;;;;0.50;0.50;;;;;5.11;59.55;101693.31;5096011;27;60571;-60
2022/02/25 04:31:55;;;;;;;;;2.00;0.00;;;;;5.13;59.64;101689.75;5095117;27;67220;-60
2022/02/25 04:34:21;;;;;;;;;1.25;1.00;;;;;5.15;59.47;101687.91;5077956;27;47066;-58
2022/02/25 04:36:46;;;;;;;;;4.00;3.00;;;;;5.16;59.70;101694.81;5096143;27;45348;-59
2022/02/25 04:39:12;;;;;;;;;1.00;1.00;;;;;5.18;59.83;101695.59;5096375;27;45530;-59
2022/02/25 04:41:38;;;;;;;;;2.75;1.00;;;;;5.18;60.01;101703.41;5095710;27;45553;-59
2022/02/25 04:44:04;;;;;;;;;1.00;1.00;;;;;5.20;59.95;101700.72;5095369;27;70067;-59
2022/02/25 04:46:29;;;;;;;;;1.75;0.00;;;;;5.19;59.66;101701.63;5096352;27;45381;-61
2022/02/25 04:48:55;;;;;;;;;2.75;0.00;;;;;5.19;59.88;101702.47;5096394;27;45393;-60
2022/02/25 04:51:21;;;;;;;;;2.00;1.00;;;;;5.19;60.02;101710.31;5095396;27;70612;-59
2022/02/25 04:53:47;;;;;;;;;0.00;0.00;;;;;5.15;59.79;101702.69;5077325;27;45468;-61
2022/02/25 04:56:12;;;;;;;;;1.00;0.25;;;;;5.13;60.08;101705.38;5096899;27;45354;-61
2022/02/25 04:58:38;;;;;;;;;2.75;1.00;;;;;5.15;60.07;101715.72;5098801;27;66595;-59
2022/02/25 05:01:03;;;;;;;;;1.00;0.00;;;;;5.13;60.16;101717.53;5099358;27;50635;-60
2022/02/25 05:03:29;;;;;;;;;0.00;0.00;;;;;5.11;60.30;101716.78;5098909;27;65567;-61
2022/02/25 05:05:54;;;;;;;;;1.25;0.00;;;;;5.11;60.11;101721.97;5099550;27;45330;-61
2022/02/25 05:08:20;;;;;;;;;14.75;10.25;;;;;5.09;60.32;101718.59;5099657;27;45433;-59
2022/02/25 05:10:45;;;;;;;;;1.00;1.00;;;;;5.08;60.34;101719.50;5098966;27;61228;-59
2022/02/25 05:13:10;;;;;;;;;2.50;1.00;;;;;5.07;60.43;101710.88;5098657;27;68384;-61
2022/02/25 05:21:04;;;;;;;;;2.00;1.00;;;;;5.04;60.81;101721.44;5099506;27;45239;-59
2022/02/25 05:23:30;;;;;;;;;2.25;0.00;;;;;5.04;60.71;101734.44;5099209;27;46320;-61
2022/02/25 05:25:55;;;;;;;;;1.50;0.00;;;;;5.03;60.61;101730.16;5099235;27;45366;-58
2022/02/25 05:28:20;;;;;;;;;0.00;0.00;;;;;5.03;60.71;101732.75;5098945;27;52045;-60
2022/02/25 05:30:46;;;;;;;;;1.00;1.00;;;;;5.01;60.92;101737.19;5099007;27;45505;-61
2022/02/25 05:33:11;;;;;;;;;3.00;1.75;;;;;4.99;60.75;101745.09;5098331;27;70123;-61
2022/02/25 05:35:36;;;;;;;;;3.50;2.00;;;;;5.00;61.14;101745.94;5098232;27;64822;-60
2022/02/25 05:38:02;;;;;;;;;3.50;2.00;;;;;4.99;60.90;101754.66;5098624;27;54394;-61
2022/02/25 05:40:27;;;;;;;;;1.50;1.00;;;;;4.99;61.10;101754.66;5098182;27;60855;-60
2022/02/25 05:42:53;;;;;;;;;9.25;6.50;;;;;4.98;61.11;101761.63;5098944;27;45446;-60
2022/02/25 05:45:18;;;;;;;;;3.50;1.00;;;;;4.98;61.42;101761.63;5098812;27;45241;-58
2022/02/25 05:47:44;;;;;;;;;2.75;0.25;;;;;5.00;61.32;101765.03;5098873;27;45301;-61
2022/02/25 05:50:13;;;;;;;;;4.00;1.50;;;;;5.01;61.40;101763.25;5098994;27;45530;-62
2022/02/25 05:52:39;;;;;;;;;1.50;1.00;;;;;4.99;61.27;101759.88;5098791;27;45565;-58
2022/02/25 05:55:04;;;;;;;;;1.50;1.00;;;;;5.00;61.45;101761.56;5098786;27;45525;-61
2022/02/25 05:57:30;;;;;;;;;1.50;0.00;;;;;4.99;61.42;101770.28;5098879;27;45433;-59
2022/02/25 05:59:55;;;;;;;;;2.25;1.00;;;;;4.95;61.31;101772.19;5098945;27;45548;-60
2022/02/25 06:02:21;;;;;;;;;0.00;0.00;;;;;4.94;61.63;101772.25;5079395;27;73493;-61
2022/02/25 06:04:46;;;;;;;;;7.50;0.00;;;;;4.93;61.62;101775.75;5097758;27;45321;-58
2022/02/25 06:07:12;;;;;;;;;0.50;0.50;;;;;4.93;61.53;101775.75;5097671;27;64151;-59
2022/02/25 06:09:37;;;;;;;;;1.75;1.00;;;;;4.90;61.74;101782.81;5097109;27;60964;-59
2022/02/25 06:12:03;;;;;;;;;3.00;2.00;;;;;4.88;61.96;101784.63;5097398;27;72788;-59
2022/02/25 06:14:28;;;;;;;;;3.00;2.00;;;;;4.86;61.99;101777.81;5098473;27;46119;-61
2022/02/25 06:16:54;;;;;;;;;2.75;1.25;;;;;4.88;62.12;101776.81;5097619;27;66437;-62
2022/02/25 06:19:19;;;;;;;;;2.00;2.00;;;;;4.90;62.25;101782.81;5097454;27;68505;-59
2022/02/25 06:21:45;;;;;;;;;2.75;2.00;;;;;4.92;62.04;101779.28;5097332;27;70280;-59
2022/02/25 06:24:10;;;;;;;;;7.00;2.75;;;;;4.94;62.39;101790.47;5097151;27;45268;-60
2022/02/25 06:26:37;;;;;;;;;2.00;2.00;;;;;4.95;62.12;101786.97;5098100;27;45362;-59
2022/02/25 06:29:02;;;;;;;;;2.00;1.00;;;;;4.98;62.14;101792.91;5097549;27;45268;-61
2022/02/25 06:31:28;;;;;;;;;2.25;1.00;;;;;5.02;62.07;101793.59;5097806;27;46289;-61
2022/02/25 06:33:53;;;;;;;;;1.25;1.00;;;;;5.03;62.26;101797.88;5098082;27;45238;-60
2022/02/25 06:36:18;;;;;;;;;1.50;1.00;;;;;5.06;62.33;101797.75;5098140;27;45243;-60
2022/02/25 06:38:46;;;;;;;;;3.50;1.25;;;;;5.08;62.01;101802.88;5097866;27;45565;-59
2022/02/25 06:41:11;;;;;;;;;3.50;0.25;;;;;5.09;62.25;101801.97;5097958;27;45439;-59
2022/02/25 06:43:36;;;;;;;;;14.00;9.75;;;;;5.12;61.93;101796.63;5097854;27;45434;-61
2022/02/25 06:46:02;;;;;;;;;33.00;20.25;;;;;5.13;62.01;101804.38;5097901;27;45681;-61
2022/02/25 06:48:28;;;;;;;;;24.00;16.00;;;;;5.16;62.29;101812.06;5097955;27;45551;-61
2022/02/25 06:50:53;;;;;;;;;13.00;4.00;;;;;5.18;62.17;101817.19;5096820;27;70274;-61
2022/02/25 06:53:18;;;;;;;;;9.75;8.75;;;;;5.22;61.94;101830.94;5097246;27;61106;-61
2022/02/25 06:55:44;;;;;;;;;13.00;8.00;;;;;5.23;62.03;101825.66;5096917;27;62890;-61
2022/02/25 06:58:09;;;;;;;;;12.75;7.75;;;;;5.26;61.74;101817.69;5096815;27;69345;-60
2022/02/25 07:00:36;;;;;;;;;6.25;4.00;;;;;5.29;61.74;101819.31;5097247;27;57511;-61
2022/02/25 07:03:01;;;;;;;;;6.50;4.00;;;;;5.31;61.95;101820.06;5097736;27;45288;-61
2022/02/25 07:05:27;;;;;;;;;13.50;13.50;;;;;5.34;61.60;101822.53;5097790;27;45309;-60
2022/02/25 07:07:52;;;;;;;;;4.00;2.00;;;;;5.35;61.98;101825.09;5097202;27;45350;-61
2022/02/25 07:10:18;;;;;;;;;6.75;3.75;;;;;5.38;61.83;101820.66;5096832;27;45285;-61
2022/02/25 07:12:44;;;;;;;;;9.25;3.00;;;;;5.41;61.77;101823.94;5097398;27;46646;-61
2022/02/25 07:15:09;;;;;;;;;2.50;2.50;;;;;5.44;61.86;101825.59;5097669;27;45345;-61
2022/02/25 07:17:35;;;;;;;;;4.50;2.00;;;;;5.46;61.85;101821.16;5097633;27;45310;-61
2022/02/25 07:20:00;;;;;;;;;21.50;20.00;;;;;5.48;61.75;101825.38;5097106;27;47000;-61
2022/02/25 07:22:26;;;;;;;;;4.50;3.00;;;;;5.50;61.61;101828.75;5079082;27;45368;-59
2022/02/25 07:24:52;;;;;;;;;3.25;2.25;;;;;5.55;61.47;101833.78;5097368;27;45338;-59
2022/02/25 07:27:17;;;;;;;;;8.25;8.25;;;;;5.60;61.62;101833.53;5097393;27;45475;-58
2022/02/25 07:29:43;;;;;;;;;13.00;7.00;;;;;5.63;61.30;101826.41;5097071;27;46234;-61
2022/02/25 07:32:08;;;;;;;;;4.00;4.00;;;;;5.67;61.20;101829.72;5096019;27;71014;-60
2022/02/25 07:34:33;;;;;;;;;9.00;4.75;;;;;5.69;61.34;101827.91;5096753;27;55870;-60
2022/02/25 07:36:59;;;;;;;;;7.00;4.00;;;;;5.72;61.08;101838.19;5096155;27;69101;-61
2022/02/25 07:39:24;;;;;;;;;7.25;5.00;;;;;5.74;61.07;101836.34;5096154;27;70462;-61
2022/02/25 07:41:50;;;;;;;;;6.50;6.00;;;;;5.79;61.05;101844.81;5096075;27;69560;-60
2022/02/25 07:44:15;;;;;;;;;8.00;6.25;;;;;5.82;61.06;101848.19;5097211;27;45427;-61
2022/02/25 07:46:41;;;;;;;;;4.00;0.00;;;;;5.86;60.95;101845.34;5078948;27;45425;-60
2022/02/25 07:49:06;;;;;;;;;8.00;4.25;;;;;5.90;60.83;101840.81;5096707;27;54076;-59
2022/02/25 07:51:32;;;;;;;;;7.25;3.00;;;;;5.94;60.92;101834.53;5096667;27;50928;-59
2022/02/25 07:53:57;;;;;;;;;2.75;2.00;;;;;5.98;61.08;101843.09;5097059;27;45356;-60
2022/02/25 07:56:23;;;;;;;;;3.00;3.00;;;;;6.02;60.90;101836.84;5096902;27;45259;-60
2022/02/25 07:58:48;;;;;;;;;5.50;3.00;;;;;6.06;60.75;101841.81;5095592;27;46221;-61
2022/02/25 08:01:14;;;;;;;;;5.00;3.00;;;;;6.12;60.81;101852.88;5096834;27;45312;-60
2022/02/25 08:03:42;;;;;;;;;9.00;5.00;;;;;6.16;60.61;101851.81;5096127;27;62506;-60
2022/02/25 08:06:09;;;;;;;;;7.75;3.25;;;;;6.21;60.48;101862.88;5096025;27;61542;-60
2022/02/25 08:08:35;;;;;;;;;4.00;3.00;;;;;6.28;60.41;101868.63;5096678;27;45359;-61
2022/02/25 08:11:01;;;;;;;;;3.00;2.00;;;;;6.33;60.24;101869.25;5096720;27;45227;-61
2022/02/25 08:13:26;;;;;;;;;4.00;2.75;;;;;6.39;60.27;101869.78;5096594;27;45223;-60
2022/02/25 08:15:51;;;;;;;;;5.75;3.00;;;;;6.48;60.08;101876.34;5096427;27;45524;-60
2022/02/25 08:18:17;;;;;;;;;6.00;1.25;;;;;6.61;59.84;101867.91;5095859;27;63338;-60
2022/02/25 08:20:42;;;;;;;;;6.25;2.00;;;;;6.70;59.91;101877.03;5096487;27;45183;-60
2022/02/25 08:23:09;;;;;;;;;5.50;3.00;;;;;6.77;59.55;101879.22;5096571;27;45223;-60
2022/02/25 08:25:36;;;;;;;;;6.75;3.75;;;;;6.87;59.29;101879.63;5095877;27;45368;-61
2022/02/25 08:28:06;;;;;;;;;13.50;12.00;;;;;6.97;59.12;101886.03;5096306;27;45953;-61
2022/02/25 08:30:31;;;;;;;;;7.25;4.00;;;;;7.10;59.16;101885.41;5078609;27;45439;-61
2022/02/25 08:33:00;;;;;;;;;8.25;4.75;;;;;7.26;58.92;101891.53;5099907;27;45322;-61
2022/02/25 08:35:26;;;;;;;;;7.00;3.00;;;;;7.44;58.63;101888.84;5099963;27;45295;-60
2022/02/25 08:37:51;;;;;;;;;3.50;2.00;;;;;7.64;58.26;101897.41;5099825;27;46020;-60
2022/02/25 08:40:16;;;;;;;;;4.25;1.50;;;;;7.79;57.55;101890.50;5099868;27;45314;-60
2022/02/25 08:42:42;;;;;;;;;4.50;1.00;;;;;7.89;57.19;101896.09;5099086;27;65984;-61
2022/02/25 08:45:08;;;;;;;;;5.00;2.00;;;;;7.96;56.90;101895.63;5081407;27;45494;-60
2022/02/25 08:47:34;;;;;;;;;2.00;2.00;;;;;8.00;56.48;101902.41;5099825;27;46455;-61
2022/02/25 08:49:59;;;;;;;;;5.25;1.25;;;;;8.04;56.10;101894.38;5099724;27;45235;-61
2022/02/25 08:52:25;;;;;;;;;7.25;3.00;;;;;8.09;56.28;101902.81;5080703;27;64694;-61
2022/02/25 08:54:51;;;;;;;;;10.00;2.50;;;;;8.21;56.22;101903.88;5099652;27;45443;-60
2022/02/25 08:57:17;;;;;;;;;7.25;5.25;;;;;8.36;55.85;101897.78;5099171;27;45915;-61
2022/02/25 08:59:42;;;;;;;;;3.50;3.00;;;;;8.55;55.63;101907.22;5099604;27;45392;-61
2022/02/25 09:02:08;;;;;;;;;4.50;3.75;;;;;8.76;55.34;101911.22;5098483;27;45406;-61
2022/02/25 09:04:33;;;;;;;;;8.25;3.75;;;;;8.99;55.22;101911.66;5099657;27;45417;-60
2022/02/25 09:06:59;;;;;;;;;5.00;2.75;;;;;9.23;54.66;101911.09;5098739;27;66610;-60
2022/02/25 09:09:24;;;;;;;;;3.50;2.00;;;;;9.45;54.03;101923.72;5098898;27;60857;-61
2022/02/25 09:11:49;;;;;;;;;4.00;2.00;;;;;9.67;53.52;101925.03;5098680;27;64318;-60
2022/02/25 09:14:15;;;;;;;;;4.50;2.00;;;;;9.88;53.17;101919.34;5098545;27;64995;-61
2022/02/25 09:16:40;;;;;;;;;3.50;1.00;;;;;10.05;52.84;101918.31;5099105;27;45381;-61
2022/02/25 09:19:07;;;;;;;;;4.25;2.50;;;;;10.16;52.05;101934.19;5098501;27;70935;-60
2022/02/25 09:21:33;;;;;;;;;3.00;3.00;;;;;10.24;52.07;101944.22;5099557;27;45280;-60
2022/02/25 09:23:58;;;;;;;;;5.00;2.00;;;;;10.34;51.33;101939.19;5099259;27;47983;-61
2022/02/25 09:26:24;;;;;;;;;2.50;2.50;;;;;10.44;51.34;101945.56;5099062;27;45378;-61
2022/02/25 09:28:49;;;;;;;;;4.00;3.00;;;;;10.62;51.42;101940.88;5098700;27;45310;-61
2022/02/25 09:31:14;;;;;;;;;6.00;3.75;;;;;10.81;51.36;101953.66;5098025;27;66515;-61
2022/02/25 09:33:40;;;;;;;;;4.75;4.25;;;;;11.01;50.80;101959.38;5099026;27;45438;-61
2022/02/25 09:36:06;;;;;;;;;3.50;3.25;;;;;11.21;50.22;101958.00;5098938;27;47043;-60
2022/02/25 09:38:32;;;;;;;;;4.00;2.50;;;;;11.40;49.50;101962.84;5098051;27;45818;-60
2022/02/25 09:40:57;;;;;;;;;4.00;3.00;;;;;11.57;49.25;101964.28;5099043;27;45297;-60
2022/02/25 09:43:24;;;;;;;;;5.00;3.00;;;;;11.71;48.33;101960.69;5096698;27;70551;-61
2022/02/25 09:45:49;;;;;;;;;4.75;3.75;;;;;11.84;48.62;101960.66;5080771;27;46605;-61
2022/02/25 09:48:15;;;;;;;;;3.25;3.25;;;;;12.01;48.03;101967.38;5098080;27;67419;-60
2022/02/25 09:50:42;;;;;;;;;6.25;3.00;;;;;12.17;47.77;101967.13;5098147;27;60373;-61
2022/02/25 09:53:08;;;;;;;;;3.50;3.00;;;;;12.32;47.56;101973.06;5097966;27;45630;-61
2022/02/25 09:55:33;;;;;;;;;3.50;2.75;;;;;12.50;47.05;101977.09;5098656;27;46037;-61
2022/02/25 09:58:03;;;;;;;;;8.00;4.00;;;;;12.63;46.59;101974.41;5098946;27;45452;-60
2022/02/25 10:00:28;;;;;;;;;3.00;3.00;;;;;12.77;46.59;101982.97;5098847;27;45378;-59
2022/02/25 10:02:55;;;;;;;;;5.75;3.00;;;;;12.93;46.21;101981.81;5098718;27;45615;-62
2022/02/25 10:05:22;;;;;;;;;4.50;2.00;;;;;13.09;45.52;101983.28;5098370;27;46133;-60
2022/02/25 10:07:47;;;;;;;;;5.75;3.00;;;;;13.20;45.64;101991.22;5098490;27;45969;-61
2022/02/25 10:10:14;;;;;;;;;4.00;1.50;;;;;13.31;45.43;101990.38;5098651;27;45307;-60
2022/02/25 10:12:44;;;;;;;;;8.00;4.00;;;;;13.40;44.90;101987.03;5098077;27;45215;-61
2022/02/25 10:15:10;;;;;;;;;3.50;3.00;;;;;13.51;45.44;101994.19;5098261;27;46255;-61
2022/02/25 10:17:37;;;;;;;;;3.00;2.00;;;;;13.61;44.71;101989.84;5098660;27;45353;-61
2022/02/25 10:20:04;;;;;;;;;4.50;2.25;;;;;13.65;44.19;101991.28;5098571;27;45276;-61
2022/02/25 10:22:30;;;;;;;;;5.00;3.00;;;;;13.71;44.19;101997.03;5098305;27;45489;-62
2022/02/25 10:25:01;;;;;;;;;4.00;3.00;;;;;13.79;44.37;102002.56;5098090;27;45307;-61
2022/02/25 10:27:36;;;;;;;;;1.50;1.50;;;;;13.82;43.53;102001.47;5098029;27;45727;-61
2022/02/25 10:30:04;;;;;;;;;5.00;4.00;;;;;13.83;43.72;102003.16;5098010;27;45340;-61
2022/02/25 10:32:31;;;;;;;;;6.25;3.00;;;;;13.88;43.52;102012.41;5098334;27;45525;-61
2022/02/25 10:34:56;;;;;;;;;7.25;3.00;;;;;13.92;43.77;102013.84;5097931;27;45891;-61
2022/02/25 10:37:22;;;;;;;;;6.50;3.00;;;;;13.98;43.34;102012.50;5078651;27;71080;-61
2022/02/25 10:39:47;;;;;;;;;7.25;4.00;;;;;14.08;43.18;102007.31;5097917;27;45281;-61
2022/02/25 10:42:19;;;;;;;;;6.25;3.75;;;;;14.16;43.36;102004.09;5096678;27;51846;-60
2022/02/25 10:44:57;;;;;;;;;3.00;2.00;;;;;14.22;43.29;102009.69;5103321;27;45306;-61
2022/02/25 10:47:30;;;;;;;;;4.75;3.00;;;;;14.33;43.03;102003.53;5118502;27;45381;-59
2022/02/25 10:50:04;;;;;;;;;4.25;3.50;;;;;14.43;42.21;102000.16;5118567;27;45335;-61
2022/02/25 10:52:37;;;;;;;;;4.00;3.00;;;;;14.52;41.86;102009.97;5118133;27;45422;-61
2022/02/25 10:55:05;;;;;;;;;4.25;3.25;;;;;14.57;41.71;102007.78;5117657;27;46352;-62
2022/02/25 10:57:34;;;;;;;;;5.25;2.50;;;;;14.61;41.66;102005.72;5118072;27;45353;-61
2022/02/25 11:00:00;;;;;;;;;2.75;2.00;;;;;14.67;41.85;102008.72;5100811;27;45469;-61
2022/02/25 11:02:35;;;;;;;;;4.75;3.00;;;;;14.79;41.78;102017.47;5117392;27;65997;-61
2022/02/25 11:05:08;;;;;;;;;4.00;4.00;;;;;14.96;41.32;102012.59;5117702;27;46418;-61
2022/02/25 11:07:35;;;;;;;;;7.00;3.00;;;;;15.05;40.80;102013.59;5118099;27;45794;-61
2022/02/25 11:10:01;;;;;;;;;9.00;3.00;;;;;15.14;41.13;102013.66;5116191;27;45491;-62
2022/02/25 11:12:28;;;;;;;;;4.75;2.50;;;;;15.17;40.76;102011.72;5118196;27;45553;-61
2022/02/25 11:14:53;;;;;;;;;2.00;2.00;;;;;15.18;40.16;102006.31;5116809;27;45473;-61
2022/02/25 11:17:19;;;;;;;;;3.25;3.00;;;;;15.08;40.05;102010.72;5117905;27;45315;-61
2022/02/25 11:19:44;;;;;;;;;3.25;2.00;;;;;14.99;40.15;102012.34;5117852;27;47734;-61
2022/02/25 11:22:10;;;;;;;;;5.00;2.00;;;;;14.83;40.07;102018.91;5096203;27;45701;-61
2022/02/25 11:24:38;;;;;;;;;4.75;3.00;;;;;14.67;40.70;102013.16;5081058;27;75539;-61
2022/02/25 11:27:07;;;;;;;;;4.00;2.25;;;;;14.60;40.86;102009.34;5116136;27;45898;-61
2022/02/25 11:29:40;;;;;;;;;3.75;1.75;;;;;14.63;40.87;102011.72;5117663;27;45403;-60
2022/02/25 11:32:06;;;;;;;;;3.75;3.00;;;;;14.68;41.04;102017.47;5099578;27;45608;-61
2022/02/25 11:34:32;;;;;;;;;3.00;3.00;;;;;14.74;40.87;102019.66;5098443;27;68580;-61